Time;durP1;ratioP1;P1;durP2;ratioP2;P2;SDS_P1;SDS_P2;PMS_P1;PMS_P2;Temp;Humidity;BMP_temperature;BMP_pressure;BME280_temperature;BME280_humidity;BME280_pressure;Samples;Min_cycle;Max_cycle;Signal;HPM_P1;HPM_P2
2024/03/17 00:02:24;;;;;;;7.03;4.55;;;;;;;8.04;100.00;101225.81;5112331;27;20055;-71
2024/03/17 00:04:50;;;;;;;5.32;3.90;;;;;;;8.03;100.00;101225.84;5115970;27;20070;-71
2024/03/17 00:07:21;;;;;;;6.80;4.60;;;;;;;8.03;100.00;101226.72;5111810;27;20062;-71
2024/03/17 00:09:46;;;;;;;5.60;4.35;;;;;;;8.00;100.00;101221.56;5108805;27;20109;-71
2024/03/17 00:12:13;;;;;;;5.47;4.22;;;;;;;7.98;100.00;101215.44;5128742;27;20043;-70
2024/03/17 00:14:40;;;;;;;6.97;4.47;;;;;;;7.93;100.00;101214.66;5104485;27;20104;-70
2024/03/17 00:17:07;;;;;;;7.95;4.82;;;;;;;7.83;100.00;101207.00;5130541;27;20051;-72
2024/03/17 00:19:33;;;;;;;6.85;4.70;;;;;;;7.82;100.00;101210.53;5122564;27;20082;-70
2024/03/17 00:22:00;;;;;;;6.40;4.65;;;;;;;7.77;100.00;101215.03;5113375;27;20713;-72
2024/03/17 00:24:34;;;;;;;6.95;4.82;;;;;;;7.73;100.00;101220.38;5121700;27;20075;-73
2024/03/17 00:27:00;;;;;;;7.82;4.75;;;;;;;7.67;100.00;101220.53;5105738;27;20062;-71
2024/03/17 00:29:27;;;;;;;7.20;4.20;;;;;;;7.56;100.00;101209.34;5123143;27;20073;-72
2024/03/17 00:31:53;;;;;;;5.75;3.88;;;;;;;7.60;100.00;101221.56;5109409;27;20066;-70
2024/03/17 00:34:20;;;;;;;6.40;4.40;;;;;;;7.65;100.00;101232.00;5115166;27;20050;-70
2024/03/17 00:36:46;;;;;;;6.63;4.75;;;;;;;7.65;100.00;101222.34;5111176;27;20137;-71
2024/03/17 00:39:14;;;;;;;5.75;4.07;;;;;;;7.70;100.00;101224.88;5111673;27;20082;-78
2024/03/17 00:41:44;;;;;;;8.35;4.20;;;;;;;7.71;100.00;101216.06;5129205;27;20113;-70
2024/03/17 00:44:11;;;;;;;7.53;4.90;;;;;;;7.69;100.00;101209.97;5119948;27;20039;-72
2024/03/17 00:46:37;;;;;;;7.20;4.30;;;;;;;7.65;100.00;101210.91;5113114;27;20119;-73
2024/03/17 00:49:05;;;;;;;6.65;4.00;;;;;;;7.64;100.00;101211.81;5094456;27;20126;-71
2024/03/17 00:51:31;;;;;;;8.05;4.50;;;;;;;7.59;100.00;101211.03;5121154;27;20150;-71
2024/03/17 00:53:58;;;;;;;7.85;4.10;;;;;;;7.57;100.00;101207.56;5106374;27;20139;-72
2024/03/17 00:56:24;;;;;;;6.65;4.50;;;;;;;7.54;100.00;101197.13;5107560;27;20122;-70
2024/03/17 00:58:52;;;;;;;7.07;4.22;;;;;;;7.49;100.00;101193.72;5109244;27;20035;-72
2024/03/17 01:01:19;;;;;;;8.10;4.60;;;;;;;7.48;100.00;101200.75;5110761;27;20074;-71
2024/03/17 01:03:46;;;;;;;7.10;4.07;;;;;;;7.51;100.00;101191.91;5123669;27;20524;-71
2024/03/17 01:06:11;;;;;;;7.25;3.67;;;;;;;7.37;100.00;101174.63;5105748;27;20063;-69
2024/03/17 01:08:38;;;;;;;5.88;3.95;;;;;;;7.47;100.00;101185.84;5107856;27;20046;-72
2024/03/17 01:11:08;;;;;;;7.18;4.13;;;;;;;7.36;100.00;101167.63;5109315;27;20071;-70
2024/03/17 01:13:35;;;;;;;7.47;4.10;;;;;;;7.39;100.00;101177.25;5088953;27;20035;-72
2024/03/17 01:16:03;;;;;;;6.38;4.15;;;;;;;7.35;100.00;101170.28;5121168;27;20880;-69
2024/03/17 01:18:31;;;;;;;6.55;4.28;;;;;;;7.28;100.00;101177.44;5105056;27;20155;-70
2024/03/17 01:20:57;;;;;;;7.25;4.13;;;;;;;7.20;100.00;101160.94;5121419;27;20038;-70
2024/03/17 01:23:24;;;;;;;7.80;4.28;;;;;;;7.26;100.00;101165.19;5107084;27;20117;-74
2024/03/17 01:25:50;;;;;;;6.20;3.50;;;;;;;7.20;100.00;101165.34;5100983;27;20067;-75
2024/03/17 01:28:16;;;;;;;7.40;4.50;;;;;;;7.22;100.00;101159.16;5124949;27;20078;-72
2024/03/17 01:30:42;;;;;;;7.03;4.20;;;;;;;7.19;100.00;101161.84;5105371;27;20679;-72
2024/03/17 01:33:12;;;;;;;9.27;4.78;;;;;;;7.16;100.00;101155.75;5110724;27;20046;-72
2024/03/17 01:35:38;;;;;;;8.07;4.20;;;;;;;7.12;100.00;101156.72;5115600;27;20093;-72
2024/03/17 01:38:05;;;;;;;9.20;4.82;;;;;;;7.09;100.00;101157.66;5122470;27;20416;-70
2024/03/17 01:40:31;;;;;;;10.23;4.97;;;;;;;7.04;100.00;101157.75;5109285;27;20158;-72
2024/03/17 01:42:57;;;;;;;7.25;4.45;;;;;;;7.00;100.00;101158.72;5124621;27;20039;-71
2024/03/17 01:45:28;;;;;;;8.52;4.53;;;;;;;6.94;100.00;101155.31;5123378;27;20067;-71
2024/03/17 01:47:57;;;;;;;6.83;4.30;;;;;;;6.88;100.00;101143.16;5121731;27;20125;-71
2024/03/17 01:50:28;;;;;;;9.38;5.28;;;;;;;6.95;100.00;101159.69;5109730;27;20043;-71
2024/03/17 01:52:59;;;;;;;10.73;4.75;;;;;;;6.92;100.00;101149.25;5128594;27;20459;-76
2024/03/17 01:55:26;;;;;;;7.47;5.00;;;;;;;6.25;100.00;101047.91;5106035;27;20111;-70
2024/03/17 01:57:54;;;;;;;9.10;5.28;;;;;;;6.84;100.00;101148.50;5128470;27;20134;-70
2024/03/17 02:00:20;;;;;;;10.90;5.28;;;;;;;6.78;100.00;101138.09;5128195;27;20081;-71
2024/03/17 02:02:47;;;;;;;6.90;5.40;;;;;;;6.81;100.00;101148.56;5107761;27;20070;-70
2024/03/17 02:05:13;;;;;;;11.27;5.50;;;;;;;6.81;100.00;101132.78;5106950;27;20138;-74
2024/03/17 02:07:41;;;;;;;8.52;5.53;;;;;;;6.81;100.00;101132.78;5091113;27;20546;-71
2024/03/17 02:10:08;;;;;;;11.45;5.55;;;;;;;6.76;100.00;101132.03;5109299;27;20039;-70
2024/03/17 02:12:37;;;;;;;7.70;5.10;;;;;;;6.60;100.00;101116.53;5122828;27;20110;-69
2024/03/17 02:15:05;;;;;;;7.32;5.35;;;;;;;6.68;100.00;101140.91;5102589;27;20043;-72
2024/03/17 02:17:32;;;;;;;9.85;5.22;;;;;;;6.66;100.00;101137.44;5125362;27;20075;-71
2024/03/17 02:19:59;;;;;;;8.82;5.57;;;;;;;6.55;100.00;101118.38;5110567;27;20077;-70
2024/03/17 02:22:28;;;;;;;11.98;6.10;;;;;;;6.49;100.00;101114.97;5108721;27;20118;-74
2024/03/17 02:24:54;;;;;;;8.68;5.60;;;;;;;6.60;100.00;101140.22;5103744;27;20043;-70
2024/03/17 02:27:21;;;;;;;10.10;5.05;;;;;;;6.57;100.00;101144.66;5130821;27;20069;-71
2024/03/17 02:29:47;;;;;;;11.10;5.60;;;;;;;6.55;100.00;101134.16;5122641;27;20074;-73
2024/03/17 02:32:14;;;;;;;9.07;5.43;;;;;;;6.51;100.00;101129.84;5112718;27;20067;-75
2024/03/17 02:34:45;;;;;;;10.00;5.53;;;;;;;6.47;100.00;101129.91;5104660;27;20130;-69
2024/03/17 02:37:11;;;;;;;9.75;5.53;;;;;;;6.43;100.00;101125.63;5104691;27;20417;-69
2024/03/17 02:39:38;;;;;;;9.65;6.05;;;;;;;6.38;100.00;101123.06;5109087;27;20050;-71
2024/03/17 02:42:07;;;;;;;9.20;6.20;;;;;;;6.33;100.00;101125.78;5108682;27;20069;-70
2024/03/17 02:44:35;;;;;;;8.00;5.72;;;;;;;6.28;100.00;101113.63;5098580;27;20500;-73
2024/03/17 02:47:04;;;;;;;11.05;6.20;;;;;;;6.06;100.00;101088.59;5124271;27;20074;-69
2024/03/17 02:49:36;;;;;;;10.45;5.95;;;;;;;6.15;100.00;101112.06;5125680;27;20123;-71
2024/03/17 02:52:04;;;;;;;9.75;6.05;;;;;;;6.09;100.00;101114.84;5126350;27;20043;-70
2024/03/17 02:54:31;;;;;;;10.20;6.25;;;;;;;6.05;100.00;101113.16;5112990;27;20039;-74
2024/03/17 02:56:59;;;;;;;6.95;5.60;;;;;;;5.88;100.00;101090.63;5125253;27;20058;-70
2024/03/17 02:59:26;;;;;;;9.00;5.53;;;;;;;5.96;100.00;101112.41;5124103;27;20115;-70
2024/03/17 03:01:54;;;;;;;9.55;6.35;;;;;;;5.89;100.00;101100.25;5122119;27;20047;-70
2024/03/17 03:04:21;;;;;;;11.75;6.45;;;;;;;5.78;100.00;101102.16;5122259;27;20130;-74
2024/03/17 03:06:48;;;;;;;11.55;6.35;;;;;;;5.88;100.00;101110.75;5103926;27;20516;-71
2024/03/17 03:09:20;;;;;;;10.27;6.00;;;;;;;5.90;100.00;101102.00;5108180;27;20107;-71
2024/03/17 03:11:47;;;;;;;10.73;6.10;;;;;;;5.84;100.00;101106.44;5117127;27;20066;-71
2024/03/17 03:14:16;;;;;;;12.68;6.65;;;;;;;5.75;100.00;101111.84;5104517;27;20055;-77
2024/03/17 03:16:43;;;;;;;9.25;6.15;;;;;;;5.71;100.00;101116.28;5121098;27;20126;-71
2024/03/17 03:19:10;;;;;;;10.00;6.78;;;;;;;5.61;100.00;101106.81;5105196;27;20082;-73
2024/03/17 03:21:36;;;;;;;12.23;6.88;;;;;;;5.60;100.00;101116.47;5109545;28;20538;-72
2024/03/17 03:24:04;;;;;;;12.27;6.63;;;;;;;5.45;100.00;101092.19;5105204;27;20073;-79
2024/03/17 03:26:33;;;;;;;12.23;7.13;;;;;;;5.57;100.00;101118.25;5114946;27;20080;-71
2024/03/17 03:29:00;;;;;;;9.32;6.47;;;;;;;5.55;100.00;101128.78;5107962;27;20130;-73
2024/03/17 03:31:28;;;;;;;10.15;6.43;;;;;;;5.52;100.00;101117.44;5094850;27;20171;-70
2024/03/17 03:33:56;;;;;;;11.13;6.75;;;;;;;5.47;100.00;101116.66;5109066;28;20496;-71
2024/03/17 03:36:23;;;;;;;12.05;6.78;;;;;;;5.49;100.00;101126.25;5122631;28;20078;-72
2024/03/17 03:38:50;;;;;;;11.32;6.20;;;;;;;5.49;100.00;101126.25;5106792;28;20059;-71
2024/03/17 03:41:17;;;;;;;10.88;6.53;;;;;;;5.48;100.00;101121.91;5125011;27;20066;-71
2024/03/17 03:43:45;;;;;;;8.77;6.70;;;;;;;5.47;100.00;101132.44;5125655;27;20908;-70
2024/03/17 03:46:12;;;;;;;11.10;6.85;;;;;;;5.35;100.00;101111.59;5099468;28;20082;-70
2024/03/17 03:48:43;;;;;;;11.23;6.55;;;;;;;5.33;100.00;101121.25;5098734;27;20043;-74
2024/03/17 03:51:10;;;;;;;9.50;6.22;;;;;;;4.54;100.00;101010.31;5089501;27;20818;-70
2024/03/17 03:53:38;;;;;;;13.15;7.25;;;;;;;5.24;100.00;101137.97;5124287;27;20118;-70
2024/03/17 03:56:08;;;;;;;12.70;6.30;;;;;;;4.94;100.00;101092.00;5105776;28;20070;-72
2024/03/17 03:58:40;;;;;;;12.40;6.47;;;;;;;5.15;100.00;101135.50;5110784;28;20059;-72
2024/03/17 04:01:08;;;;;;;10.75;6.72;;;;;;;5.00;100.00;101131.31;5107268;28;20046;-71
2024/03/17 04:03:35;;;;;;;14.15;7.10;;;;;;;4.85;100.00;101116.63;5118815;27;20122;-71
2024/03/17 04:06:06;;;;;;;9.88;6.95;;;;;;;4.97;100.00;101130.47;5101262;28;20078;-71
2024/03/17 04:08:33;;;;;;;10.02;6.90;;;;;;;4.82;100.00;101105.28;5100634;27;20130;-71
2024/03/17 04:11:00;;;;;;;12.50;7.55;;;;;;;5.00;100.00;101141.81;5120605;27;20180;-70
2024/03/17 04:13:27;;;;;;;12.05;7.88;;;;;;;4.92;100.00;101136.63;5110908;28;20059;-70
2024/03/17 04:15:56;;;;;;;11.95;7.18;;;;;;;4.85;100.00;101147.25;5104368;27;20954;-70
2024/03/17 04:18:25;;;;;;;12.30;7.55;;;;;;;4.77;100.00;101143.81;5126345;27;20531;-71
2024/03/17 04:20:53;;;;;;;11.25;6.93;;;;;;;4.73;100.00;101147.34;5107187;27;20047;-72
2024/03/17 04:23:22;;;;;;;10.75;7.13;;;;;;;4.68;100.00;101144.81;5125468;28;20130;-76
2024/03/17 04:25:49;;;;;;;13.10;7.63;;;;;;;4.73;100.00;101155.22;5100763;27;20148;-71
2024/03/17 04:28:16;;;;;;;11.85;7.15;;;;;;;4.67;100.00;101140.44;5111609;27;20059;-72
2024/03/17 04:30:44;;;;;;;10.45;7.05;;;;;;;4.71;100.00;101149.16;5106511;27;20066;-70
2024/03/17 04:33:11;;;;;;;9.52;7.03;;;;;;;4.72;100.00;101151.72;5126816;27;20069;-72
2024/03/17 04:35:39;;;;;;;11.65;7.07;;;;;;;4.70;100.00;101155.28;5089753;27;20123;-70
2024/03/17 04:38:06;;;;;;;11.52;7.82;;;;;;;4.66;100.00;101150.94;5108042;27;20058;-70
2024/03/17 04:40:35;;;;;;;14.10;7.10;;;;;;;4.65;100.00;101154.44;5093652;27;20046;-71
2024/03/17 04:43:02;;;;;;;11.05;7.90;;;;;;;4.65;100.00;101151.81;5104829;27;20462;-70
2024/03/17 04:45:30;;;;;;;11.45;6.82;;;;;;;4.64;100.00;101147.47;5087372;27;20565;-70
2024/03/17 04:47:56;;;;;;;12.05;6.90;;;;;;;4.71;100.00;101149.16;5128354;27;20077;-70
2024/03/17 04:50:23;;;;;;;14.18;7.53;;;;;;;4.66;100.00;101148.31;5111571;27;20126;-70
2024/03/17 04:52:50;;;;;;;9.93;7.13;;;;;;;4.70;100.00;101156.16;5107064;27;20105;-72
2024/03/17 04:55:18;;;;;;;13.05;7.05;;;;;;;4.69;100.00;101150.91;5104111;27;20450;-71
2024/03/17 04:57:46;;;;;;;9.55;6.50;;;;;;;4.70;100.00;101153.53;5103923;27;20043;-72
2024/03/17 05:00:13;;;;;;;10.82;6.88;;;;;;;4.65;100.00;101154.44;5122497;27;20320;-73
2024/03/17 05:02:42;;;;;;;10.15;7.47;;;;;;;4.70;100.00;101163.16;5112150;27;20120;-70
2024/03/17 05:05:10;;;;;;;9.23;6.63;;;;;;;4.68;100.00;101154.44;5108672;27;20100;-70
2024/03/17 05:07:37;;;;;;;9.80;7.18;;;;;;;4.72;100.00;101156.13;5124967;27;20455;-69
2024/03/17 05:10:05;;;;;;;9.27;6.90;;;;;;;4.76;100.00;101155.19;5112603;27;20139;-78
2024/03/17 05:12:32;;;;;;;9.07;6.95;;;;;;;4.74;100.00;101151.72;5111305;27;20059;-72
2024/03/17 05:15:00;;;;;;;10.95;6.57;;;;;;;4.73;100.00;101156.09;5107669;27;20067;-70
2024/03/17 05:17:27;;;;;;;9.93;6.72;;;;;;;4.72;100.00;101156.97;5111901;27;20121;-70
2024/03/17 05:19:54;;;;;;;8.95;6.30;;;;;;;4.72;100.00;101154.34;5129022;27;20073;-70
2024/03/17 05:22:21;;;;;;;10.82;6.40;;;;;;;4.72;100.00;101145.66;5120681;27;20059;-70
2024/03/17 05:24:48;;;;;;;13.85;7.07;;;;;;;4.71;100.00;101138.66;5111790;27;20069;-74
2024/03/17 05:27:15;;;;;;;12.95;7.25;;;;;;;4.74;100.00;101149.09;5104047;27;20556;-71
2024/03/17 05:29:41;;;;;;;11.30;7.20;;;;;;;4.71;100.00;101154.41;5109286;27;20576;-70
2024/03/17 05:32:09;;;;;;;9.52;6.88;;;;;;;4.68;100.00;101154.44;5109369;27;20050;-70
2024/03/17 05:34:36;;;;;;;11.70;7.03;;;;;;;4.65;100.00;101155.31;5110892;27;20443;-71
2024/03/17 05:37:03;;;;;;;10.32;7.20;;;;;;;4.64;100.00;101152.72;5121713;27;20081;-73
2024/03/17 05:39:33;;;;;;;10.77;7.10;;;;;;;4.51;100.00;101123.13;5107024;27;20074;-72
2024/03/17 05:42:03;;;;;;;11.13;7.60;;;;;;;4.54;100.00;101123.97;5106760;27;20050;-71
2024/03/17 05:44:39;;;;;;;12.10;7.45;;;;;;;4.65;100.00;101154.44;5095606;27;20035;-70
2024/03/17 05:47:08;;;;;;;11.23;7.93;;;;;;;4.62;100.00;101150.09;5103791;27;20081;-71
2024/03/17 05:49:36;;;;;;;12.80;7.85;;;;;;;4.61;100.00;101155.34;5101683;28;20145;-70
2024/03/17 05:52:02;;;;;;;10.32;7.45;;;;;;;4.24;100.00;101092.81;5124473;27;20059;-70
2024/03/17 05:54:29;;;;;;;11.98;7.32;;;;;;;4.33;100.00;101111.06;5093156;27;20454;-70
2024/03/17 05:56:57;;;;;;;11.57;7.70;;;;;;;4.58;100.00;101144.00;5101221;27;20046;-72
2024/03/17 05:59:23;;;;;;;8.55;7.07;;;;;;;4.60;100.00;101157.13;5123341;27;20046;-70
2024/03/17 06:01:50;;;;;;;11.50;7.95;;;;;;;4.62;100.00;101159.72;5109326;27;20511;-73
2024/03/17 06:04:17;;;;;;;10.82;7.97;;;;;;;4.63;100.00;101156.22;5126992;27;20054;-70
2024/03/17 06:06:46;;;;;;;10.82;8.05;;;;;;;4.50;100.00;101135.38;5090199;27;20118;-72
2024/03/17 06:09:18;;;;;;;14.80;8.60;;;;;;;4.66;100.00;101154.44;5124006;27;20031;-69
2024/03/17 06:11:45;;;;;;;11.48;8.25;;;;;;;4.67;100.00;101152.69;5094409;27;20067;-69
2024/03/17 06:14:13;;;;;;;10.82;7.60;;;;;;;4.73;100.00;101152.59;5089336;27;20502;-70
2024/03/17 06:16:39;;;;;;;11.30;7.97;;;;;;;4.79;100.00;101152.53;5092359;27;20552;-71
2024/03/17 06:19:07;;;;;;;10.63;7.70;;;;;;;4.83;100.00;101157.75;5108051;27;20464;-71
2024/03/17 06:21:34;;;;;;;13.27;7.95;;;;;;;4.86;100.00;101154.22;5109133;27;20070;-71
2024/03/17 06:24:02;;;;;;;11.38;7.60;;;;;;;4.88;100.00;101152.44;5123320;27;20126;-70
2024/03/17 06:26:31;;;;;;;11.57;7.50;;;;;;;4.90;100.00;101145.41;5118999;27;20057;-71
2024/03/17 06:28:58;;;;;;;14.82;8.50;;;;;;;4.92;100.00;101147.13;5109816;27;20374;-70
2024/03/17 06:31:25;;;;;;;12.85;6.78;;;;;;;4.97;100.00;101146.22;5108329;27;20066;-70
2024/03/17 06:33:50;;;;;;;13.68;7.55;;;;;;;4.97;100.00;101141.84;5090566;27;20066;-71
2024/03/17 06:36:17;;;;;;;11.13;7.32;;;;;;;4.97;100.00;101140.97;5104125;27;20058;-71
2024/03/17 06:38:45;;;;;;;9.23;6.93;;;;;;;4.96;100.00;101145.34;5120629;27;20044;-73
2024/03/17 06:41:14;;;;;;;11.05;6.63;;;;;;;5.02;100.00;101145.28;5126201;27;20078;-72
2024/03/17 06:43:43;;;;;;;12.35;7.00;;;;;;;4.99;100.00;101131.31;5123591;27;20039;-70
2024/03/17 06:46:10;;;;;;;9.80;6.88;;;;;;;5.08;100.00;101147.81;5119724;27;20535;-71
2024/03/17 06:48:37;;;;;;;9.43;7.00;;;;;;;5.15;100.00;101146.00;5122478;27;20066;-70
2024/03/17 06:51:05;;;;;;;8.93;7.00;;;;;;;5.20;100.00;101139.78;5088937;27;20294;-75
2024/03/17 06:53:33;;;;;;;12.25;7.43;;;;;;;5.19;100.00;101126.69;5118973;27;20067;-70
2024/03/17 06:56:00;;;;;;;14.15;7.10;;;;;;;5.18;100.00;101117.94;5121475;27;20128;-72
2024/03/17 06:58:29;;;;;;;9.90;5.93;;;;;;;5.48;100.00;101139.41;5123540;27;20063;-72
2024/03/17 07:00:57;;;;;;;8.90;6.57;;;;;;;5.55;100.00;101130.53;5117358;27;20066;-71
2024/03/17 07:03:26;;;;;;;8.27;6.13;;;;;;;5.74;100.00;101132.00;5096039;27;20058;-70
2024/03/17 07:05:54;;;;;;;10.35;6.30;;;;;;;6.01;100.00;101133.34;5103608;27;20123;-73
2024/03/17 07:08:21;;;;;;;7.15;5.43;;;;;;;6.27;100.00;101139.06;5125385;27;20059;-71
2024/03/17 07:10:59;;;;;;;6.60;5.13;;;;;;;6.66;100.00;101142.72;5110264;27;20046;-70
2024/03/17 07:13:26;;;;;;;7.82;5.32;;;;;;;7.01;100.00;101133.25;5108153;27;20043;-73
2024/03/17 07:15:54;;;;;;;7.80;4.70;;;;;;;7.32;100.00;101129.06;5088543;27;20147;-72
2024/03/17 07:18:21;;;;;;;8.45;4.93;;;;;;;7.51;100.00;101104.94;5105894;27;20051;-71
2024/03/17 07:20:48;;;;;;;5.68;4.57;;;;;;;7.96;100.00;101119.66;5127755;27;20134;-70
2024/03/17 07:23:16;;;;;;;6.72;4.90;;;;;;;8.25;100.00;101120.69;5108020;27;20129;-70
2024/03/17 07:25:44;;;;;;;6.97;4.80;;;;;;;8.40;100.00;101129.09;5112041;27;20593;-71
2024/03/17 07:28:10;;;;;;;5.63;4.95;;;;;;;8.57;100.00;101131.28;5100018;27;20070;-71
2024/03/17 07:30:37;;;;;;;8.27;4.15;;;;;;;8.87;100.00;101123.44;5123220;27;20062;-72
2024/03/17 07:33:05;;;;;;;8.23;4.80;;;;;;;9.12;100.00;101116.56;5124317;28;20090;-74
2024/03/17 07:35:32;;;;;;;5.90;4.45;;;;;;;9.30;100.00;101120.38;5125090;28;20050;-72
2024/03/17 07:37:59;;;;;;;5.13;4.18;;;;;;;9.22;100.00;101120.63;5119841;28;20122;-71
2024/03/17 07:40:25;;;;;;;5.50;4.43;;;;;;;9.31;100.00;101114.19;5113201;28;20120;-74
2024/03/17 07:42:53;;;;;;;5.32;4.10;;;;;;;9.43;100.00;101109.44;5108669;27;20070;-70
2024/03/17 07:45:20;;;;;;;4.72;3.80;;;;;;;9.37;100.00;101054.09;5121670;27;20047;-70
2024/03/17 07:47:47;;;;;;;5.93;4.32;;;;;;;9.98;98.54;101107.66;5105561;27;20157;-72
2024/03/17 07:50:17;;;;;;;5.65;3.70;;;;;;;10.28;92.25;101107.56;5122161;27;20107;-71
2024/03/17 07:52:44;;;;;;;8.37;4.10;;;;;;;10.49;87.68;101105.03;5125387;27;20043;-70
2024/03/17 07:55:12;;;;;;;8.02;4.05;;;;;;;10.60;83.32;101117.88;5093672;27;20134;-71
2024/03/17 07:57:40;;;;;;;5.10;3.53;;;;;;;10.55;79.35;101115.38;5118513;27;20062;-70
2024/03/17 08:00:15;;;;;;;4.88;3.80;;;;;;;10.39;78.58;101095.66;5123627;27;20103;-72
2024/03/17 08:02:42;;;;;;;5.10;3.75;;;;;;;10.53;80.72;101111.09;5122351;27;20083;-70
2024/03/17 08:05:11;;;;;;;5.20;3.45;;;;;;;10.56;78.69;101105.66;5108597;27;20046;-73
2024/03/17 08:07:41;;;;;;;4.68;3.13;;;;;;;10.70;76.48;101103.41;5119985;27;20088;-71
2024/03/17 08:10:08;;;;;;;5.13;3.30;;;;;;;10.80;72.70;101099.50;5120959;27;20092;-70
2024/03/17 08:12:35;;;;;;;6.93;3.80;;;;;;;10.86;73.63;101107.19;5124611;27;20118;-71
2024/03/17 08:15:04;;;;;;;4.10;3.20;;;;;;;10.95;73.14;101105.16;5096726;27;20050;-70
2024/03/17 08:17:31;;;;;;;4.53;3.33;;;;;;;10.95;70.90;101110.44;5092158;27;20060;-71
2024/03/17 08:19:59;;;;;;;6.03;3.38;;;;;;;10.81;72.70;101111.81;5109120;27;20059;-72
2024/03/17 08:22:26;;;;;;;3.63;2.92;;;;;;;10.77;70.43;101110.19;5102985;27;20059;-72
2024/03/17 08:24:54;;;;;;;5.82;3.45;;;;;;;10.69;71.89;101114.06;5127788;27;20063;-71
2024/03/17 08:27:21;;;;;;;3.83;3.30;;;;;;;10.62;72.85;101110.75;5086641;27;20124;-72
2024/03/17 08:29:48;;;;;;;4.82;3.35;;;;;;;10.76;71.57;101119.06;5101047;27;20040;-72
2024/03/17 08:32:17;;;;;;;5.72;3.30;;;;;;;10.77;67.90;101110.19;5111747;27;20133;-69
2024/03/17 08:34:47;;;;;;;6.53;3.80;;;;;;;10.73;67.69;101118.31;5129665;27;20074;-71
2024/03/17 08:37:14;;;;;;;4.95;3.58;;;;;;;10.48;70.20;101123.63;5121994;27;20082;-72
2024/03/17 08:39:42;;;;;;;3.58;3.08;;;;;;;10.25;73.30;101081.19;5124409;27;20042;-71
2024/03/17 08:42:10;;;;;;;5.30;3.70;;;;;;;10.77;72.63;101115.50;5112871;27;20074;-74
2024/03/17 08:44:37;;;;;;;5.75;3.83;;;;;;;10.90;69.26;101110.59;5130166;27;20062;-70
2024/03/17 08:47:03;;;;;;;6.32;3.28;;;;;;;10.95;68.08;101105.16;5124683;27;20066;-73
2024/03/17 08:49:31;;;;;;;5.32;3.30;;;;;;;10.87;66.03;101095.69;5106887;27;20081;-72
2024/03/17 08:51:58;;;;;;;5.10;3.30;;;;;;;10.47;66.83;101069.81;5093610;27;20079;-71
2024/03/17 08:54:25;;;;;;;4.95;3.38;;;;;;;10.61;68.89;101109.03;5124803;27;20051;-72
2024/03/17 08:56:52;;;;;;;4.57;3.33;;;;;;;10.69;67.73;101104.34;5117719;27;20130;-70
2024/03/17 08:59:20;;;;;;;4.28;3.38;;;;;;;10.76;67.54;101102.31;5092164;27;20071;-72
2024/03/17 09:01:47;;;;;;;4.45;3.55;;;;;;;10.84;68.26;101103.78;5129221;27;20194;-70
2024/03/17 09:04:13;;;;;;;4.75;3.83;;;;;;;10.92;67.85;101081.41;5110007;27;20066;-71
2024/03/17 09:06:41;;;;;;;6.63;3.72;;;;;;;11.22;65.49;101088.19;5105835;27;20126;-70
2024/03/17 09:09:08;;;;;;;7.88;3.70;;;;;;;11.19;64.11;101069.75;5109599;27;20066;-77
2024/03/17 09:11:34;;;;;;;5.60;3.50;;;;;;;11.27;63.71;101091.53;5113728;27;20039;-70
2024/03/17 09:14:03;;;;;;;4.47;3.47;;;;;;;11.25;64.53;101096.91;5105087;27;20500;-71
2024/03/17 09:16:34;;;;;;;6.57;3.83;;;;;;;11.23;64.86;101090.78;5122797;27;20062;-70
2024/03/17 09:19:01;;;;;;;5.38;4.05;;;;;;;11.18;64.04;101092.75;5120951;27;20059;-69
2024/03/17 09:21:27;;;;;;;5.05;3.78;;;;;;;11.25;64.83;101086.28;5114102;27;20069;-71
2024/03/17 09:23:54;;;;;;;6.10;4.15;;;;;;;11.25;64.52;101083.66;5126362;27;20063;-70
2024/03/17 09:26:22;;;;;;;6.00;3.67;;;;;;;11.05;64.76;101062.34;5107813;27;20512;-70
2024/03/17 09:28:49;;;;;;;5.88;3.60;;;;;;;11.21;65.54;101081.16;5119668;27;20063;-70
2024/03/17 09:31:16;;;;;;;4.75;3.45;;;;;;;11.24;66.30;101089.00;5119186;27;20122;-70
2024/03/17 09:33:46;;;;;;;4.65;3.80;;;;;;;11.35;66.20;101085.91;5114146;27;20050;-70
2024/03/17 09:36:13;;;;;;;6.13;4.03;;;;;;;11.49;65.70;101078.31;5128803;27;20059;-77
2024/03/17 09:38:41;;;;;;;4.65;3.65;;;;;;;11.43;64.55;101052.03;5114450;27;20071;-71
2024/03/17 09:41:08;;;;;;;6.70;3.40;;;;;;;11.66;64.37;101080.25;5122840;27;20067;-71
2024/03/17 09:43:37;;;;;;;5.53;3.20;;;;;;;11.78;63.40;101072.72;5124488;27;20123;-71
2024/03/17 09:46:05;;;;;;;4.40;2.90;;;;;;;11.98;63.23;101071.88;5129096;27;20047;-71
2024/03/17 09:48:31;;;;;;;5.28;3.13;;;;;;;12.16;61.81;101068.44;5107637;27;20484;-71
2024/03/17 09:51:01;;;;;;;4.32;3.10;;;;;;;12.17;60.49;101048.06;5130001;27;20039;-70
2024/03/17 09:53:30;;;;;;;6.13;3.10;;;;;;;12.42;60.79;101055.84;5103350;27;20078;-70
2024/03/17 09:56:00;;;;;;;4.72;2.92;;;;;;;12.58;59.02;101064.88;5112466;27;20039;-72
2024/03/17 09:58:27;;;;;;;4.65;3.08;;;;;;;12.70;58.67;101061.66;5120063;27;20744;-70
2024/03/17 10:00:54;;;;;;;4.22;2.83;;;;;;;12.85;58.46;101049.47;5127947;27;20581;-73
2024/03/17 10:03:41;;;;;;;4.88;3.45;;;;;;;12.48;57.38;100981.19;5125273;27;20074;-70
2024/03/17 10:06:12;;;;;;;6.00;3.10;;;;;;;12.90;58.01;101043.00;5125069;27;20417;-71
2024/03/17 10:08:46;;;;;;;4.70;2.92;;;;;;;12.93;58.02;101044.63;5108934;27;20047;-71
2024/03/17 10:11:15;;;;;;;3.60;3.25;;;;;;;12.98;57.47;101045.28;5114225;27;20122;-70
2024/03/17 10:13:43;;;;;;;4.32;3.28;;;;;;;13.11;57.54;101042.91;5106256;28;20133;-71
2024/03/17 10:16:24;;;;;;;6.25;2.97;;;;;;;13.18;58.98;101031.97;5084353;28;20067;-70
2024/03/17 10:18:51;;;;;;;4.70;3.53;;;;;;;13.19;56.19;101027.50;5055291;27;20040;-71
2024/03/17 10:21:27;;;;;;;4.20;3.20;;;;;;;13.08;56.88;101038.59;5088205;28;20131;-71
2024/03/17 10:24:08;;;;;;;4.57;2.90;;;;;;;12.88;56.77;101034.25;5087374;28;20071;-73
2024/03/17 10:26:38;;;;;;;3.47;3.17;;;;;;;12.96;56.26;101053.34;5056997;28;20044;-73
2024/03/17 10:29:06;;;;;;;7.38;3.25;;;;;;;12.80;56.95;101036.38;5075378;28;20136;-72
2024/03/17 10:31:33;;;;;;;4.70;3.20;;;;;;;12.71;57.04;101055.41;5088129;28;20063;-70
2024/03/17 10:34:04;;;;;;;4.05;3.00;;;;;;;12.71;58.39;101049.22;5090662;28;20122;-71
2024/03/17 10:36:31;;;;;;;4.55;4.13;;;;;;;12.88;57.62;101042.22;5070329;28;20040;-71
2024/03/17 10:38:58;;;;;;;5.07;3.60;;;;;;;12.61;57.53;101035.47;5085004;28;20046;-72
2024/03/17 10:41:28;;;;;;;5.10;3.97;;;;;;;12.39;58.29;101038.25;5075626;28;20067;-70
2024/03/17 10:43:56;;;;;;;5.03;3.42;;;;;;;12.16;59.30;101038.38;5075619;28;20050;-71
2024/03/17 10:46:26;;;;;;;6.18;3.92;;;;;;;12.14;60.22;101042.88;5086486;28;20135;-73
2024/03/17 10:48:54;;;;;;;5.05;3.55;;;;;;;11.98;60.58;101013.47;5069715;28;20113;-70
2024/03/17 10:51:20;;;;;;;5.28;3.33;;;;;;;12.16;60.31;101041.91;5066469;28;20106;-71
2024/03/17 10:53:52;;;;;;;5.82;3.10;;;;;;;12.21;60.95;101031.94;5071894;28;20066;-71
2024/03/17 10:56:20;;;;;;;6.53;3.90;;;;;;;12.37;61.11;101025.97;5089249;28;20039;-70
2024/03/17 10:58:56;;;;;;;4.82;3.30;;;;;;;12.30;59.97;101026.22;5078407;28;20082;-71
2024/03/17 11:01:23;;;;;;;6.50;3.65;;;;;;;12.25;60.50;101033.53;5033434;28;20662;-71
2024/03/17 11:03:52;;;;;;;5.68;3.80;;;;;;;12.25;61.06;101027.38;5084596;28;20067;-70
2024/03/17 11:06:18;;;;;;;5.22;3.17;;;;;;;12.43;61.00;101031.00;5069959;28;20936;-70
2024/03/17 11:08:46;;;;;;;4.65;3.20;;;;;;;12.56;60.31;101026.88;5069312;28;20115;-71
2024/03/17 11:11:36;;;;;;;6.00;3.17;;;;;;;12.70;60.68;101023.59;5072378;28;20092;-72
2024/03/17 11:14:18;;;;;;;5.38;3.50;;;;;;;12.92;59.37;101024.31;5078946;27;20059;-72
2024/03/17 11:16:45;;;;;;;4.38;3.30;;;;;;;12.99;59.03;101028.41;5091341;27;20084;-70
2024/03/17 11:19:16;;;;;;;3.72;3.05;;;;;;;13.20;59.41;101030.09;5107713;27;20129;-69
2024/03/17 11:21:43;;;;;;;5.97;3.63;;;;;;;13.36;57.69;101019.59;5108991;27;20059;-73
2024/03/17 11:24:20;;;;;;;4.05;3.13;;;;;;;13.43;56.91;101026.31;5064841;28;20535;-71
2024/03/17 11:26:49;;;;;;;4.78;3.33;;;;;;;13.44;56.65;101024.50;5107853;27;20066;-70